createdAt,value
2023-02-17T00:00:07.921Z,21.80
2023-02-17T00:02:36.612Z,18.40
2023-02-17T00:05:04.904Z,17.20
2023-02-17T00:07:33.138Z,18.87
2023-02-17T00:10:01.828Z,19.17
2023-02-17T00:12:30.003Z,18.77
2023-02-17T00:14:59.601Z,17.63
2023-02-17T00:17:27.719Z,18.60
2023-02-17T00:19:56.377Z,17.60
2023-02-17T00:22:24.483Z,17.57
2023-02-17T00:24:52.633Z,18.03
2023-02-17T00:27:20.782Z,19.37
2023-02-17T00:29:48.871Z,19.17
2023-02-17T00:32:18.368Z,18.53
2023-02-17T00:34:46.620Z,18.77
2023-02-17T00:37:14.716Z,19.80
2023-02-17T00:39:42.905Z,20.27
2023-02-17T00:42:10.999Z,17.93
2023-02-17T00:44:39.102Z,20.20
2023-02-17T00:47:07.271Z,14.63
2023-02-17T00:49:36.827Z,18.47
2023-02-17T00:52:04.977Z,20.40
2023-02-17T00:54:33.029Z,18.63
2023-02-17T00:57:01.136Z,17.13
2023-02-17T00:59:29.272Z,15.07
2023-02-17T01:01:57.367Z,16.63
2023-02-17T01:04:25.613Z,13.80
2023-02-17T01:06:55.219Z,12.93
2023-02-17T01:09:23.426Z,12.30
2023-02-17T01:11:51.545Z,13.50
2023-02-17T01:14:19.617Z,11.97
2023-02-17T01:16:49.465Z,11.00
2023-02-17T01:19:19.384Z,9.60
2023-02-17T01:21:47.752Z,9.37
2023-02-17T01:24:17.208Z,9.60
2023-02-17T01:26:45.262Z,10.43
2023-02-17T01:29:13.320Z,8.90
2023-02-17T01:31:41.701Z,9.67
2023-02-17T01:34:11.436Z,11.40
2023-02-17T01:36:39.530Z,8.53
2023-02-17T01:39:07.647Z,8.60
2023-02-17T01:41:37.090Z,7.50
2023-02-17T01:44:11.357Z,8.93
2023-02-17T01:46:40.635Z,9.37
2023-02-17T01:49:25.042Z,8.17
2023-02-17T01:51:57.554Z,11.30
2023-02-17T01:54:31.515Z,10.57
2023-02-17T01:57:03.033Z,10.50
2023-02-17T01:59:32.300Z,10.87
2023-02-17T02:02:04.034Z,10.77
2023-02-17T02:04:35.865Z,11.07
2023-02-17T02:07:05.110Z,12.33
2023-02-17T02:09:37.582Z,10.53
2023-02-17T02:12:19.914Z,11.03
2023-02-17T02:14:49.009Z,12.60
2023-02-17T02:17:27.607Z,11.53
2023-02-17T02:20:13.172Z,10.90
2023-02-17T02:23:26.474Z,13.27
2023-02-17T02:26:30.704Z,13.37
2023-02-17T02:29:18.901Z,12.67
2023-02-17T02:31:56.309Z,12.90
2023-02-17T02:34:31.649Z,13.77
2023-02-17T02:37:05.314Z,15.20
2023-02-17T02:39:39.560Z,13.90
2023-02-17T02:42:11.222Z,15.60
2023-02-17T02:44:39.306Z,13.50
2023-02-17T02:47:28.468Z,14.70
2023-02-17T02:49:58.098Z,12.37
2023-02-17T02:52:32.368Z,14.43
2023-02-17T02:55:04.735Z,13.63
2023-02-17T02:57:41.932Z,13.10
2023-02-17T03:08:28.983Z,11.30
2023-02-17T03:10:57.550Z,12.00
2023-02-17T03:13:26.076Z,11.90
2023-02-17T03:15:54.456Z,12.87
2023-02-17T03:18:22.532Z,11.83
2023-02-17T03:20:54.132Z,13.37
2023-02-17T03:23:23.595Z,11.93
2023-02-17T03:25:51.658Z,11.97
2023-02-17T03:28:19.733Z,12.90
2023-02-17T03:30:47.906Z,12.20
2023-02-17T03:33:16.089Z,13.00
2023-02-17T03:35:44.138Z,11.97
2023-02-17T03:38:12.246Z,11.30
2023-02-17T03:40:41.923Z,14.93
2023-02-17T03:43:10.031Z,13.47
2023-02-17T03:45:38.489Z,13.23
2023-02-17T03:48:06.882Z,11.67
2023-02-17T03:50:34.946Z,13.30
2023-02-17T03:53:03.030Z,13.23
2023-02-17T03:55:31.167Z,15.60
2023-02-17T03:58:00.616Z,15.43
2023-02-17T04:00:28.760Z,14.53
2023-02-17T04:02:57.148Z,16.37
2023-02-17T04:05:25.268Z,16.57
2023-02-17T04:07:53.567Z,16.10
2023-02-17T04:10:21.778Z,19.07
2023-02-17T04:12:49.890Z,23.23
2023-02-17T04:15:19.374Z,18.73
2023-02-17T04:17:47.459Z,20.63
2023-02-17T04:20:15.537Z,17.83
2023-02-17T04:22:43.599Z,19.90
2023-02-17T04:25:11.712Z,18.27
2023-02-17T04:27:39.773Z,19.33
2023-02-17T04:30:10.849Z,19.50
2023-02-17T04:32:41.683Z,18.57
2023-02-17T04:35:09.917Z,18.97
2023-02-17T04:37:37.974Z,20.87
2023-02-17T04:40:10.453Z,19.00
2023-02-17T04:42:38.741Z,17.90
2023-02-17T04:45:08.175Z,18.50
2023-02-17T04:47:36.660Z,18.33
2023-02-17T04:50:09.136Z,18.03
2023-02-17T04:52:37.390Z,21.07
2023-02-17T04:55:06.395Z,20.17
2023-02-17T04:57:35.109Z,19.57
2023-02-17T05:00:03.262Z,17.00
2023-02-17T05:02:31.568Z,17.60
2023-02-17T05:04:59.788Z,17.33
2023-02-17T05:07:29.384Z,20.93
2023-02-17T05:09:57.613Z,19.43
2023-02-17T05:12:25.695Z,19.73
2023-02-17T05:14:53.881Z,17.67
2023-02-17T05:17:22.047Z,20.23
2023-02-17T05:19:52.891Z,20.13
2023-02-17T05:22:20.994Z,18.70
2023-02-17T05:24:51.016Z,22.43
2023-02-17T05:27:19.342Z,20.03
2023-02-17T05:29:47.746Z,20.20
2023-02-17T05:32:16.086Z,23.43
2023-02-17T05:34:44.367Z,22.87
2023-02-17T05:37:12.812Z,19.87
2023-02-17T05:39:40.969Z,21.43
2023-02-17T05:42:10.454Z,21.33
2023-02-17T05:44:38.534Z,20.63
2023-02-17T05:47:06.737Z,25.83
2023-02-17T05:49:34.803Z,23.63
2023-02-17T05:52:03.563Z,23.30
2023-02-17T05:54:31.636Z,25.03
2023-02-17T05:56:59.710Z,25.00
2023-02-17T05:59:29.368Z,22.53
2023-02-17T06:01:57.742Z,24.03
2023-02-17T06:04:25.917Z,21.63
2023-02-17T06:06:54.131Z,23.60
2023-02-17T06:09:22.507Z,23.40
2023-02-17T06:11:50.990Z,22.23
2023-02-17T06:14:19.164Z,25.80
2023-02-17T06:16:48.851Z,23.87
2023-02-17T06:19:17.197Z,21.67
2023-02-17T06:21:45.429Z,24.17
2023-02-17T06:24:13.783Z,22.57
2023-02-17T06:26:41.952Z,23.33
2023-02-17T06:29:10.118Z,21.47
2023-02-17T06:31:38.258Z,24.00
2023-02-17T06:34:07.997Z,21.80
2023-02-17T06:36:36.228Z,24.20
2023-02-17T06:39:04.600Z,19.63
2023-02-17T06:41:32.708Z,22.13
2023-02-17T06:44:00.858Z,20.73
2023-02-17T06:46:28.988Z,21.43
2023-02-17T06:48:57.090Z,21.10
2023-02-17T06:51:26.672Z,21.47
2023-02-17T06:53:54.857Z,22.20
2023-02-17T06:56:23.213Z,21.83
2023-02-17T06:58:51.395Z,21.43
2023-02-17T07:01:22.103Z,20.90
2023-02-17T07:03:50.544Z,23.33
2023-02-17T07:06:18.668Z,23.33
2023-02-17T07:08:48.498Z,24.30
2023-02-17T07:11:17.438Z,22.83
2023-02-17T07:13:45.720Z,24.13
2023-02-17T07:16:14.915Z,23.73
2023-02-17T07:18:43.440Z,25.13
2023-02-17T07:28:54.846Z,25.57
2023-02-17T07:31:23.185Z,24.60
2023-02-17T07:33:51.304Z,20.37
2023-02-17T07:36:19.873Z,24.30
2023-02-17T07:38:47.996Z,21.47
2023-02-17T07:41:18.751Z,20.23
2023-02-17T07:43:47.548Z,22.37
2023-02-17T07:46:17.133Z,23.03
2023-02-17T07:48:45.276Z,21.00
2023-02-17T07:51:15.599Z,18.63
2023-02-17T07:53:44.060Z,18.80
2023-02-17T07:56:14.621Z,18.63
2023-02-17T07:58:44.597Z,19.83
2023-02-17T08:01:14.982Z,18.57
2023-02-17T08:03:44.684Z,21.07
2023-02-17T08:06:13.834Z,22.20
2023-02-17T08:08:59.173Z,20.20
2023-02-17T08:11:46.496Z,17.90
2023-02-17T08:14:15.811Z,18.93
2023-02-17T08:16:43.976Z,18.33
2023-02-17T08:19:13.479Z,19.47
2023-02-17T08:21:41.690Z,19.87
2023-02-17T08:24:09.819Z,21.90
2023-02-17T08:26:38.157Z,19.27
2023-02-17T08:29:06.264Z,16.90
2023-02-17T08:31:36.577Z,17.13
2023-02-17T08:34:06.988Z,17.70
2023-02-17T08:36:37.434Z,20.83
2023-02-17T08:39:06.774Z,18.50
2023-02-17T08:41:37.048Z,16.40
2023-02-17T08:44:09.518Z,16.00
2023-02-17T08:46:38.417Z,16.73
2023-02-17T08:49:07.759Z,20.97
2023-02-17T08:51:37.834Z,18.90
2023-02-17T08:54:07.825Z,16.60
2023-02-17T08:56:37.600Z,15.90
2023-02-17T08:59:06.135Z,15.47
2023-02-17T09:01:34.610Z,15.33
2023-02-17T09:04:04.464Z,15.80
2023-02-17T09:06:39.101Z,16.03
2023-02-17T09:09:09.046Z,15.77
2023-02-17T09:11:37.224Z,14.67
2023-02-17T09:14:06.413Z,14.63
2023-02-17T09:16:34.514Z,16.03
2023-02-17T09:19:02.724Z,12.67
2023-02-17T09:21:30.889Z,13.07
2023-02-17T09:24:00.481Z,13.27
2023-02-17T09:26:28.604Z,13.77
2023-02-17T09:28:58.094Z,12.27
2023-02-17T09:31:28.090Z,13.23
2023-02-17T09:33:56.560Z,11.93
2023-02-17T09:36:28.393Z,14.63
2023-02-17T09:38:56.943Z,12.13
2023-02-17T09:41:39.305Z,10.50
2023-02-17T09:44:14.989Z,10.97
2023-02-17T09:47:00.598Z,11.30
2023-02-17T09:49:36.184Z,9.07
2023-02-17T09:52:09.585Z,8.53
2023-02-17T09:54:42.610Z,8.73
2023-02-17T09:57:19.728Z,7.43
2023-02-17T09:59:52.258Z,8.23
2023-02-17T10:02:27.039Z,6.10
2023-02-17T10:04:58.368Z,7.43
2023-02-17T10:07:31.672Z,5.50
2023-02-17T10:10:06.773Z,5.43
2023-02-17T10:12:41.267Z,5.00
2023-02-17T10:15:13.649Z,5.20
2023-02-17T10:17:49.815Z,6.73
2023-02-17T10:20:21.682Z,7.23
2023-02-17T10:22:55.965Z,5.53
2023-02-17T10:25:39.797Z,5.03
2023-02-17T10:28:18.337Z,5.43
2023-02-17T10:30:53.160Z,5.53
2023-02-17T10:33:29.027Z,5.30
2023-02-17T10:36:06.616Z,6.03
2023-02-17T10:38:47.374Z,3.93
2023-02-17T10:41:18.921Z,4.10
2023-02-17T10:43:50.065Z,5.90
2023-02-17T10:46:24.080Z,5.00
2023-02-17T10:48:54.782Z,4.40
2023-02-17T10:51:26.624Z,5.03
2023-02-17T10:53:59.801Z,4.20
2023-02-17T10:56:34.720Z,5.43
2023-02-17T10:59:08.899Z,5.43
2023-02-17T11:01:38.228Z,4.00
2023-02-17T11:04:08.856Z,4.20
2023-02-17T11:06:42.833Z,4.30
2023-02-17T11:09:21.239Z,6.23
2023-02-17T11:11:59.929Z,4.70
2023-02-17T11:14:32.013Z,3.80
2023-02-17T11:17:02.568Z,4.03
2023-02-17T11:19:34.037Z,4.60
2023-02-17T11:22:04.047Z,3.80
2023-02-17T11:24:34.459Z,3.83
2023-02-17T11:27:05.681Z,4.97
2023-02-17T11:29:35.319Z,4.87
2023-02-17T11:32:07.312Z,3.37
2023-02-17T11:34:37.208Z,3.20
2023-02-17T11:37:21.320Z,3.93
2023-02-17T11:39:51.161Z,5.33
2023-02-17T11:42:23.720Z,5.07
2023-02-17T11:44:54.954Z,2.70
2023-02-17T11:47:34.953Z,2.97
2023-02-17T11:50:40.921Z,3.77
2023-02-17T11:53:30.795Z,3.33
2023-02-17T11:56:12.943Z,5.07
2023-02-17T11:59:16.219Z,4.03
2023-02-17T12:02:05.075Z,5.37
2023-02-17T12:04:34.397Z,4.67
2023-02-17T12:07:24.865Z,4.97
2023-02-17T12:10:04.766Z,4.67
2023-02-17T12:12:45.313Z,5.17
2023-02-17T12:15:30.094Z,5.13
2023-02-17T12:18:09.742Z,5.03
2023-02-17T12:20:47.407Z,3.70
2023-02-17T12:23:42.753Z,3.67
2023-02-17T12:26:20.410Z,4.60
2023-02-17T12:29:03.383Z,3.93
2023-02-17T12:31:49.753Z,4.30
2023-02-17T12:34:26.714Z,3.93
2023-02-17T12:36:57.716Z,4.40
2023-02-17T12:39:29.965Z,3.03
2023-02-17T12:42:03.466Z,7.10
2023-02-17T12:44:36.617Z,5.00
2023-02-17T12:47:11.513Z,5.70
2023-02-17T12:49:46.821Z,5.63
2023-02-17T12:52:19.490Z,4.63
2023-02-17T12:54:52.751Z,7.13
2023-02-17T12:57:23.608Z,9.30
2023-02-17T12:59:54.609Z,5.97
2023-02-17T13:02:24.486Z,4.73
2023-02-17T13:04:55.444Z,8.17
2023-02-17T13:07:43.878Z,5.60
2023-02-17T13:10:30.041Z,8.63
2023-02-17T13:13:01.321Z,6.90
2023-02-17T13:15:33.786Z,7.60
2023-02-17T13:18:03.679Z,6.13
2023-02-17T13:20:58.785Z,8.63
2023-02-17T13:23:40.195Z,6.20
2023-02-17T13:26:34.701Z,6.93
2023-02-17T13:29:34.618Z,5.93
2023-02-17T13:32:05.032Z,10.63
2023-02-17T13:34:35.927Z,7.73
2023-02-17T13:37:20.630Z,5.13
2023-02-17T13:39:48.740Z,5.57
2023-02-17T13:42:35.794Z,8.03
2023-02-17T13:45:12.564Z,7.10
2023-02-17T13:47:42.104Z,8.00
2023-02-17T13:50:29.131Z,6.83
2023-02-17T13:52:59.007Z,9.33
2023-02-17T13:55:27.489Z,8.70
2023-02-17T13:57:57.084Z,7.27
2023-02-17T14:00:28.098Z,7.93
2023-02-17T14:02:58.468Z,6.77
2023-02-17T14:05:36.479Z,7.90
2023-02-17T14:08:13.133Z,7.30
2023-02-17T14:10:41.974Z,9.47
2023-02-17T14:13:12.205Z,8.77
2023-02-17T14:15:51.730Z,6.10
2023-02-17T14:18:30.766Z,5.77
2023-02-17T14:21:07.334Z,6.83
2023-02-17T14:23:45.840Z,5.53
2023-02-17T14:26:16.948Z,4.30
2023-02-17T14:28:54.991Z,6.60
2023-02-17T14:31:24.327Z,7.83
2023-02-17T14:34:01.553Z,8.70
2023-02-17T14:36:33.539Z,4.80
2023-02-17T14:39:05.366Z,6.20
2023-02-17T14:41:33.538Z,5.13
2023-02-17T14:44:02.292Z,8.77
2023-02-17T14:46:30.452Z,5.67
2023-02-17T14:48:58.572Z,6.13
2023-02-17T14:51:32.281Z,4.63
2023-02-17T14:54:02.453Z,6.70
2023-02-17T14:56:36.134Z,4.80
2023-02-17T14:59:04.525Z,6.67
2023-02-17T15:01:32.680Z,5.63
2023-02-17T15:04:02.857Z,4.57
2023-02-17T15:06:39.371Z,3.73
2023-02-17T15:09:14.183Z,6.17
2023-02-17T15:11:45.764Z,6.10
2023-02-17T15:14:15.895Z,3.53
2023-02-17T15:16:44.364Z,4.53
2023-02-17T15:19:13.335Z,6.53
2023-02-17T15:21:46.591Z,6.03
2023-02-17T15:24:17.665Z,6.23
2023-02-17T15:26:48.058Z,6.73
2023-02-17T15:29:17.952Z,5.10
2023-02-17T15:31:46.929Z,5.10
2023-02-17T15:34:17.459Z,5.47
2023-02-17T15:36:46.225Z,7.07
2023-02-17T15:39:15.878Z,5.80
2023-02-17T15:41:46.989Z,4.83
2023-02-17T15:44:18.694Z,4.37
2023-02-17T15:46:47.880Z,5.53
2023-02-17T15:49:16.016Z,4.53
2023-02-17T15:51:44.090Z,4.70
2023-02-17T15:54:13.011Z,6.50
2023-02-17T15:56:45.310Z,6.87
2023-02-17T15:59:19.506Z,4.97
2023-02-17T16:01:47.638Z,6.73
2023-02-17T16:04:16.611Z,7.10
2023-02-17T16:06:44.970Z,4.20
2023-02-17T16:09:15.516Z,7.27
2023-02-17T16:11:48.495Z,4.90
2023-02-17T16:14:25.744Z,6.70
2023-02-17T16:16:55.304Z,4.40
2023-02-17T16:19:23.616Z,6.23
2023-02-17T16:25:44.652Z,9.23
2023-02-17T16:28:16.623Z,8.33
2023-02-17T16:30:46.810Z,5.47
2023-02-17T16:33:15.102Z,4.27
2023-02-17T16:35:43.630Z,5.87
2023-02-17T16:38:17.033Z,5.43
2023-02-17T16:40:48.222Z,6.97
2023-02-17T16:43:17.723Z,8.60
2023-02-17T16:45:55.101Z,6.60
2023-02-17T16:48:24.680Z,6.33
2023-02-17T16:50:53.091Z,5.63
2023-02-17T16:53:22.005Z,5.30
2023-02-17T16:55:55.127Z,8.40
2023-02-17T16:58:25.260Z,5.50
2023-02-17T17:00:56.255Z,5.57
2023-02-17T17:03:24.664Z,6.43
2023-02-17T17:05:53.746Z,8.47
2023-02-17T17:08:22.457Z,5.17
2023-02-17T17:10:50.860Z,7.33
2023-02-17T17:13:18.977Z,9.00
2023-02-17T17:15:47.500Z,8.27
2023-02-17T17:18:21.118Z,6.60
2023-02-17T17:20:49.915Z,6.60
2023-02-17T17:23:19.203Z,7.33
2023-02-17T17:25:48.674Z,5.43
2023-02-17T17:28:18.848Z,6.60
2023-02-17T17:30:47.841Z,5.23
2023-02-17T17:33:16.261Z,6.73
2023-02-17T17:35:45.862Z,6.40
2023-02-17T17:38:16.490Z,11.10
2023-02-17T17:40:50.247Z,10.53
2023-02-17T17:43:20.210Z,7.47
2023-02-17T17:45:48.820Z,8.47
2023-02-17T17:48:18.643Z,10.03
2023-02-17T17:50:50.038Z,9.50
2023-02-17T17:53:18.173Z,9.40
2023-02-17T17:55:48.212Z,10.27
2023-02-17T17:58:17.256Z,11.20
2023-02-17T18:00:45.408Z,7.77
2023-02-17T18:03:13.566Z,8.93
2023-02-17T18:05:41.711Z,8.87
2023-02-17T18:08:11.310Z,11.03
2023-02-17T18:10:40.255Z,8.10
2023-02-17T18:13:09.637Z,9.07
2023-02-17T18:15:37.917Z,13.23
2023-02-17T18:18:06.724Z,8.93
2023-02-17T18:20:34.854Z,7.90
2023-02-17T18:23:02.997Z,9.97
2023-02-17T18:25:32.603Z,7.90
2023-02-17T18:28:00.743Z,9.03
2023-02-17T18:30:29.479Z,12.90
2023-02-17T18:32:57.721Z,10.47
2023-02-17T18:35:25.787Z,9.20
2023-02-17T18:37:54.135Z,9.87
2023-02-17T18:40:23.062Z,7.97
2023-02-17T18:42:52.777Z,12.23
2023-02-17T18:45:21.043Z,8.50
2023-02-17T18:47:49.319Z,7.80
2023-02-17T18:50:18.005Z,8.93
2023-02-17T18:52:46.104Z,9.67
2023-02-17T18:55:14.912Z,10.27
2023-02-17T18:57:44.873Z,10.77
2023-02-17T19:00:17.002Z,9.33
2023-02-17T19:02:45.378Z,13.47
2023-02-17T19:05:14.815Z,9.53
2023-02-17T19:07:43.081Z,9.50
2023-02-17T19:10:12.477Z,8.53
2023-02-17T19:12:40.944Z,11.97
2023-02-17T19:15:09.440Z,9.63
2023-02-17T19:17:38.888Z,12.47
2023-02-17T19:20:08.114Z,9.67
2023-02-17T19:22:37.345Z,9.77
2023-02-17T19:25:06.122Z,13.50
2023-02-17T19:27:34.431Z,13.37
2023-02-17T19:30:02.577Z,13.57
2023-02-17T19:32:30.675Z,15.60
2023-02-17T19:35:00.149Z,12.07
2023-02-17T19:37:28.255Z,11.37
2023-02-17T19:39:56.511Z,14.43
2023-02-17T19:42:24.810Z,13.10
2023-02-17T19:44:52.936Z,11.37
2023-02-17T19:47:21.101Z,14.13
2023-02-17T19:49:49.221Z,12.33
2023-02-17T19:52:19.749Z,13.33
2023-02-17T19:54:49.413Z,13.17
2023-02-17T19:57:18.451Z,16.53
2023-02-17T19:59:46.836Z,15.03
2023-02-17T20:02:15.630Z,16.43
2023-02-17T20:04:44.661Z,14.17
2023-02-17T20:07:12.872Z,16.63
2023-02-17T20:09:42.368Z,17.40
2023-02-17T20:12:10.459Z,20.27
2023-02-17T20:14:38.811Z,16.30
2023-02-17T20:17:07.038Z,21.63
2023-02-17T20:19:38.454Z,16.83
2023-02-17T20:22:06.595Z,15.63
2023-02-17T20:24:35.665Z,15.17
2023-02-17T20:27:05.293Z,17.93
2023-02-17T20:29:34.368Z,17.10
2023-02-17T20:32:03.202Z,17.10
2023-02-17T20:34:33.555Z,14.83
2023-02-17T20:37:01.705Z,15.17
2023-02-17T20:39:29.961Z,16.13
2023-02-17T20:41:58.146Z,15.73
2023-02-17T20:44:28.174Z,18.40
2023-02-17T20:46:56.704Z,17.10
2023-02-17T20:49:25.295Z,19.90
2023-02-17T20:51:54.125Z,16.77
2023-02-17T20:54:24.683Z,19.70
2023-02-17T20:56:53.108Z,19.67
2023-02-17T20:59:21.718Z,21.73
2023-02-17T21:01:51.205Z,18.63
2023-02-17T21:04:19.289Z,19.00
2023-02-17T21:06:47.498Z,20.97
2023-02-17T21:09:19.192Z,16.97
2023-02-17T21:11:47.895Z,24.87
2023-02-17T21:14:16.395Z,19.33
2023-02-17T21:16:45.125Z,16.00
2023-02-17T21:19:14.994Z,21.10
2023-02-17T21:21:43.119Z,17.67
2023-02-17T21:24:11.277Z,20.57
2023-02-17T21:26:39.732Z,19.47
2023-02-17T21:29:08.146Z,19.50
2023-02-17T21:31:37.145Z,16.70
2023-02-17T21:34:05.580Z,32.10
2023-02-17T21:36:35.081Z,22.20
2023-02-17T21:39:04.273Z,18.83
2023-02-17T21:41:32.948Z,19.53
2023-02-17T21:44:18.454Z,17.27
2023-02-17T21:46:47.048Z,21.70
2023-02-17T21:49:15.208Z,18.20
2023-02-17T21:51:45.077Z,20.27
2023-02-17T21:54:13.475Z,21.67
2023-02-17T21:56:41.875Z,20.13
2023-02-17T21:59:10.206Z,22.17
2023-02-17T22:01:38.586Z,20.20
2023-02-17T22:04:07.239Z,22.97
2023-02-17T22:06:37.415Z,19.87
2023-02-17T22:09:08.413Z,19.43
2023-02-17T22:11:39.381Z,20.43
2023-02-17T22:14:10.108Z,20.97
2023-02-17T22:16:38.585Z,23.30
2023-02-17T22:19:08.864Z,23.43
2023-02-17T22:21:37.078Z,24.57
2023-02-17T22:24:06.860Z,23.83
2023-02-17T22:26:34.936Z,21.97
2023-02-17T22:29:03.180Z,23.13
2023-02-17T22:31:32.134Z,25.00
2023-02-17T22:34:02.983Z,22.97
2023-02-17T22:36:34.612Z,29.93
2023-02-17T22:39:03.906Z,27.20
2023-02-17T22:41:35.030Z,30.93
2023-02-17T22:44:04.271Z,29.37
2023-02-17T22:46:32.843Z,25.23
2023-02-17T22:49:00.938Z,29.90
2023-02-17T22:51:31.419Z,26.33
2023-02-17T22:54:01.061Z,29.63
2023-02-17T22:56:30.013Z,29.70
2023-02-17T22:59:01.515Z,26.83
2023-02-17T23:01:31.339Z,31.77
2023-02-17T23:03:59.795Z,29.67
2023-02-17T23:06:30.581Z,30.07
2023-02-17T23:08:59.400Z,31.80
2023-02-17T23:11:47.249Z,28.27
2023-02-17T23:14:19.081Z,27.97
2023-02-17T23:16:47.569Z,32.80
2023-02-17T23:19:18.607Z,29.60
2023-02-17T23:21:49.040Z,31.37
2023-02-17T23:24:17.929Z,30.50
2023-02-17T23:26:47.504Z,31.63
2023-02-17T23:29:18.040Z,32.97
2023-02-17T23:31:46.443Z,31.00
2023-02-17T23:34:16.024Z,30.57
2023-02-17T23:36:45.772Z,35.33
2023-02-17T23:39:16.706Z,33.67
2023-02-17T23:41:45.566Z,38.97
2023-02-17T23:44:14.795Z,32.60
2023-02-17T23:46:44.868Z,37.03
2023-02-17T23:49:15.704Z,32.00
2023-02-17T23:51:44.382Z,32.43
2023-02-17T23:54:12.584Z,35.23
2023-02-17T23:56:40.954Z,35.67
2023-02-17T23:59:09.351Z,34.20
